Terminal Aerodrome Forecast
Issued by NWS Jacksonville, FL

Home | Current Version | Previous Version | Text Only | Print | Product List | Glossary On
Versions: 1 2 3 4 5 6 7 8 9 10 11 12 13 14 15 16 17 18 19
000
FTUS42 KJAX 301701 AAC
TAFJAX
TAF AMD
KJAX 301701Z 3017/3112 09006KT 3/4SM +TSRA BR BKN025CB OVC050
     FM301800 09012KT P6SM SCT025 BKN050
     FM310100 12005KT P6SM SCT020=

USA.gov is the U.S. government's official web portal to all federal, state and local government web resources and services.